Terminal Aerodrome Forecast
Issued by NWS Missoula, MT

Home | Current Version | Previous Version | Text Only | Print | Product List | Glossary On
Versions: 1 2 3 4 5 6 7 8 9 10 11 12 13 14
258
FTUS45 KMSO 180124 AAA
TAFMSO
TAF AMD
KMSO 180124Z 1801/1824 29020G30KT P6SM VCSH BKN080
     FM180500 30011KT P6SM VCSH BKN060
     FM180900 29007KT P6SM BKN100=

USA.gov is the U.S. government's official web portal to all federal, state and local government web resources and services.